sensor_id;sensor_type;location;lat;lon;timestamp;pressure;altitude;pressure_sealevel;temperature;humidity
80566;BME280;69915;54.862;10.730;2023-10-09T00:01:26;102003.22;;;8.61;100.00
80566;BME280;69915;54.862;10.730;2023-10-09T00:03:52;102012.47;;;8.60;100.00
80566;BME280;69915;54.862;10.730;2023-10-09T00:06:22;102009.66;;;8.55;100.00
80566;BME280;69915;54.862;10.730;2023-10-09T00:09:02;102020.97;;;8.64;100.00
80566;BME280;69915;54.862;10.730;2023-10-09T00:11:47;102019.66;;;8.66;100.00
80566;BME280;69915;54.862;10.730;2023-10-09T00:14:13;101990.31;;;8.57;100.00
80566;BME280;69915;54.862;10.730;2023-10-09T00:16:41;101982.81;;;8.64;100.00
80566;BME280;69915;54.862;10.730;2023-10-09T00:19:14;101968.03;;;8.60;100.00
80566;BME280;69915;54.862;10.730;2023-10-09T00:21:46;101960.44;;;8.62;100.00
80566;BME280;69915;54.862;10.730;2023-10-09T00:24:12;101962.41;;;8.66;100.00
80566;BME280;69915;54.862;10.730;2023-10-09T00:26:58;101943.59;;;8.65;100.00
80566;BME280;69915;54.862;10.730;2023-10-09T00:29:37;101934.06;;;8.67;100.00
80566;BME280;69915;54.862;10.730;2023-10-09T00:32:14;101933.25;;;8.67;100.00
80566;BME280;69915;54.862;10.730;2023-10-09T00:34:55;101930.00;;;8.70;100.00
80566;BME280;69915;54.862;10.730;2023-10-09T00:37:24;101916.31;;;8.65;100.00
80566;BME280;69915;54.862;10.730;2023-10-09T00:39:59;101915.50;;;8.64;100.00
80566;BME280;69915;54.862;10.730;2023-10-09T00:42:24;101904.44;;;8.54;100.00
80566;BME280;69915;54.862;10.730;2023-10-09T00:44:56;101890.47;;;8.51;100.00
80566;BME280;69915;54.862;10.730;2023-10-09T00:47:22;101895.44;;;8.54;100.00
80566;BME280;69915;54.862;10.730;2023-10-09T00:49:59;101908.66;;;8.62;100.00
80566;BME280;69915;54.862;10.730;2023-10-09T00:52:37;101909.16;;;8.59;100.00
80566;BME280;69915;54.862;10.730;2023-10-09T00:55:11;101903.94;;;8.57;100.00
80566;BME280;69915;54.862;10.730;2023-10-09T00:57:42;101894.03;;;8.51;100.00
80566;BME280;69915;54.862;10.730;2023-10-09T01:00:16;101886.53;;;8.42;100.00
80566;BME280;69915;54.862;10.730;2023-10-09T01:02:58;101892.97;;;8.52;100.00
80566;BME280;69915;54.862;10.730;2023-10-09T01:05:38;101886.13;;;8.50;100.00
80566;BME280;69915;54.862;10.730;2023-10-09T01:08:09;101888.84;;;8.50;100.00
80566;BME280;69915;54.862;10.730;2023-10-09T01:10:46;101889.34;;;8.47;100.00
80566;BME280;69915;54.862;10.730;2023-10-09T01:13:30;101883.91;;;8.47;100.00
80566;BME280;69915;54.862;10.730;2023-10-09T01:16:22;101866.38;;;8.43;100.00
80566;BME280;69915;54.862;10.730;2023-10-09T01:18:52;101873.91;;;8.36;100.00
80566;BME280;69915;54.862;10.730;2023-10-09T01:21:51;101881.69;;;8.44;100.00
80566;BME280;69915;54.862;10.730;2023-10-09T01:24:17;101880.56;;;8.45;100.00
80566;BME280;69915;54.862;10.730;2023-10-09T01:26:45;101866.94;;;8.45;100.00
80566;BME280;69915;54.862;10.730;2023-10-09T01:29:17;101861.50;;;8.45;100.00
80566;BME280;69915;54.862;10.730;2023-10-09T01:34:40;101868.63;;;8.46;100.00
80566;BME280;69915;54.862;10.730;2023-10-09T01:37:14;101852.50;;;8.44;100.00
80566;BME280;69915;54.862;10.730;2023-10-09T01:39:57;101836.25;;;8.33;100.00
80566;BME280;69915;54.862;10.730;2023-10-09T01:42:24;101829.19;;;8.32;100.00
80566;BME280;69915;54.862;10.730;2023-10-09T01:45:02;101826.47;;;8.32;100.00
80566;BME280;69915;54.862;10.730;2023-10-09T01:47:48;101815.94;;;8.23;100.00
80566;BME280;69915;54.862;10.730;2023-10-09T01:50:22;101827.41;;;8.26;100.00
80566;BME280;69915;54.862;10.730;2023-10-09T01:52:52;101830.13;;;8.26;100.00
80566;BME280;69915;54.862;10.730;2023-10-09T01:55:18;101829.06;;;8.27;100.00
80566;BME280;69915;54.862;10.730;2023-10-09T01:58:15;101833.69;;;8.26;100.00
80566;BME280;69915;54.862;10.730;2023-10-09T02:00:47;101804.31;;;8.11;100.00
80566;BME280;69915;54.862;10.730;2023-10-09T02:03:22;101799.16;;;8.10;100.00
80566;BME280;69915;54.862;10.730;2023-10-09T02:05:53;101801.66;;;8.16;100.00
80566;BME280;69915;54.862;10.730;2023-10-09T02:08:18;101800.59;;;8.17;100.00
80566;BME280;69915;54.862;10.730;2023-10-09T02:10:52;101798.38;;;8.14;100.00
80566;BME280;69915;54.862;10.730;2023-10-09T02:13:20;101791.28;;;8.13;100.00
80566;BME280;69915;54.862;10.730;2023-10-09T02:15:56;101779.44;;;8.03;100.00
80566;BME280;69915;54.862;10.730;2023-10-09T02:18:23;101782.88;;;7.98;100.00
80566;BME280;69915;54.862;10.730;2023-10-09T02:20:51;101774.81;;;8.03;100.00
80566;BME280;69915;54.862;10.730;2023-10-09T02:23:28;101771.00;;;8.04;100.00
80566;BME280;69915;54.862;10.730;2023-10-09T02:26:11;101785.66;;;8.20;100.00
80566;BME280;69915;54.862;10.730;2023-10-09T02:28:48;101762.31;;;8.07;100.00
80566;BME280;69915;54.862;10.730;2023-10-09T02:31:24;101780.69;;;8.17;100.00
80566;BME280;69915;54.862;10.730;2023-10-09T02:33:52;101757.19;;;8.11;100.00
80566;BME280;69915;54.862;10.730;2023-10-09T02:36:19;101736.50;;;8.10;100.00
80566;BME280;69915;54.862;10.730;2023-10-09T02:38:45;101739.00;;;8.16;100.00
80566;BME280;69915;54.862;10.730;2023-10-09T02:41:17;101750.00;;;8.21;100.00
80566;BME280;69915;54.862;10.730;2023-10-09T02:43:45;101746.28;;;8.28;100.00
80566;BME280;69915;54.862;10.730;2023-10-09T02:46:21;101727.63;;;8.19;100.00
80566;BME280;69915;54.862;10.730;2023-10-09T02:48:55;101721.09;;;8.20;100.00
80566;BME280;69915;54.862;10.730;2023-10-09T02:51:26;101732.16;;;8.31;100.00
80566;BME280;69915;54.862;10.730;2023-10-09T02:53:56;101720.72;;;8.29;100.00
80566;BME280;69915;54.862;10.730;2023-10-09T02:56:23;101708.72;;;8.30;100.00
80566;BME280;69915;54.862;10.730;2023-10-09T02:59:07;101688.59;;;8.14;100.00
80566;BME280;69915;54.862;10.730;2023-10-09T03:01:37;101699.81;;;8.17;100.00
80566;BME280;69915;54.862;10.730;2023-10-09T03:04:04;101715.47;;;8.27;100.00
80566;BME280;69915;54.862;10.730;2023-10-09T03:06:31;101712.53;;;8.29;100.00
80566;BME280;69915;54.862;10.730;2023-10-09T03:08:59;101699.34;;;8.26;100.00
80566;BME280;69915;54.862;10.730;2023-10-09T03:11:25;101718.28;;;8.32;100.00
80566;BME280;69915;54.862;10.730;2023-10-09T03:13:53;101718.88;;;8.34;100.00
80566;BME280;69915;54.862;10.730;2023-10-09T03:16:20;101703.75;;;8.27;100.00
80566;BME280;69915;54.862;10.730;2023-10-09T03:18:46;101710.50;;;8.41;100.00
80566;BME280;69915;54.862;10.730;2023-10-09T03:21:12;101688.19;;;8.44;100.00
80566;BME280;69915;54.862;10.730;2023-10-09T03:23:42;101681.41;;;8.46;100.00
80566;BME280;69915;54.862;10.730;2023-10-09T03:26:09;101666.38;;;8.44;100.00
80566;BME280;69915;54.862;10.730;2023-10-09T03:28:35;101655.50;;;8.44;100.00
80566;BME280;69915;54.862;10.730;2023-10-09T03:31:01;101669.66;;;8.46;100.00
80566;BME280;69915;54.862;10.730;2023-10-09T03:33:29;101679.00;;;8.50;100.00
80566;BME280;69915;54.862;10.730;2023-10-09T03:35:58;101668.09;;;8.50;100.00
80566;BME280;69915;54.862;10.730;2023-10-09T03:38:24;101666.16;;;8.50;100.00
80566;BME280;69915;54.862;10.730;2023-10-09T03:40:49;101675.25;;;8.56;100.00
80566;BME280;69915;54.862;10.730;2023-10-09T03:43:15;101669.78;;;8.56;100.00
80566;BME280;69915;54.862;10.730;2023-10-09T03:45:41;101664.34;;;8.56;100.00
80566;BME280;69915;54.862;10.730;2023-10-09T03:48:19;101644.63;;;8.49;100.00
80566;BME280;69915;54.862;10.730;2023-10-09T03:50:52;101646.88;;;8.57;100.00
80566;BME280;69915;54.862;10.730;2023-10-09T03:53:36;101632.69;;;8.55;100.00
80566;BME280;69915;54.862;10.730;2023-10-09T03:56:07;101619.53;;;8.47;100.00
80566;BME280;69915;54.862;10.730;2023-10-09T03:58:42;101613.59;;;8.50;100.00
80566;BME280;69915;54.862;10.730;2023-10-09T04:03:44;101606.47;;;8.49;100.00
80566;BME280;69915;54.862;10.730;2023-10-09T04:06:09;101621.84;;;8.60;100.00
80566;BME280;69915;54.862;10.730;2023-10-09T04:08:36;101619.09;;;8.60;100.00
80566;BME280;69915;54.862;10.730;2023-10-09T04:11:05;101609.81;;;8.56;100.00
80566;BME280;69915;54.862;10.730;2023-10-09T04:13:45;101612.06;;;8.64;100.00
80566;BME280;69915;54.862;10.730;2023-10-09T04:16:15;101604.38;;;8.56;100.00
80566;BME280;69915;54.862;10.730;2023-10-09T04:18:56;101599.78;;;8.61;100.00
80566;BME280;69915;54.862;10.730;2023-10-09T04:21:23;101607.75;;;8.68;100.00
80566;BME280;69915;54.862;10.730;2023-10-09T04:24:02;101607.47;;;8.69;100.00
80566;BME280;69915;54.862;10.730;2023-10-09T04:26:44;101599.31;;;8.69;100.00
80566;BME280;69915;54.862;10.730;2023-10-09T04:29:17;101591.91;;;8.65;100.00
80566;BME280;69915;54.862;10.730;2023-10-09T04:32:00;101565.69;;;8.59;100.00
80566;BME280;69915;54.862;10.730;2023-10-09T04:34:27;101580.78;;;8.71;100.00
80566;BME280;69915;54.862;10.730;2023-10-09T04:37:03;101570.63;;;8.62;100.00
80566;BME280;69915;54.862;10.730;2023-10-09T04:39:49;101590.34;;;8.74;100.00
80566;BME280;69915;54.862;10.730;2023-10-09T04:42:40;101583.78;;;8.70;100.00
80566;BME280;69915;54.862;10.730;2023-10-09T04:45:23;101597.50;;;8.80;100.00
80566;BME280;69915;54.862;10.730;2023-10-09T04:48:09;101575.56;;;8.65;100.00
80566;BME280;69915;54.862;10.730;2023-10-09T04:50:35;101592.56;;;8.77;100.00
80566;BME280;69915;54.862;10.730;2023-10-09T04:53:02;101589.31;;;8.80;100.00
80566;BME280;69915;54.862;10.730;2023-10-09T04:55:42;101594.28;;;8.88;100.00
80566;BME280;69915;54.862;10.730;2023-10-09T04:58:25;101578.47;;;8.90;100.00
80566;BME280;69915;54.862;10.730;2023-10-09T05:00:54;101549.78;;;8.83;100.00
80566;BME280;69915;54.862;10.730;2023-10-09T05:03:23;101554.44;;;8.87;100.00
80566;BME280;69915;54.862;10.730;2023-10-09T05:05:52;101558.31;;;8.91;100.00
80566;BME280;69915;54.862;10.730;2023-10-09T05:08:27;101558.59;;;8.90;100.00
80566;BME280;69915;54.862;10.730;2023-10-09T05:10:54;101541.31;;;8.79;100.00
80566;BME280;69915;54.862;10.730;2023-10-09T05:13:33;101554.19;;;8.89;100.00
80566;BME280;69915;54.862;10.730;2023-10-09T05:18:31;101539.19;;;8.86;100.00
80566;BME280;69915;54.862;10.730;2023-10-09T05:21:08;101533.75;;;8.86;100.00
80566;BME280;69915;54.862;10.730;2023-10-09T05:23:52;101557.25;;;8.97;100.00
80566;BME280;69915;54.862;10.730;2023-10-09T05:26:36;101556.72;;;9.00;100.00
80566;BME280;69915;54.862;10.730;2023-10-09T05:29:14;101552.09;;;9.01;100.00
80566;BME280;69915;54.862;10.730;2023-10-09T05:31:46;101542.03;;;9.01;100.00
80566;BME280;69915;54.862;10.730;2023-10-09T05:34:23;101539.00;;;9.03;100.00
80566;BME280;69915;54.862;10.730;2023-10-09T05:36:58;101545.31;;;9.08;100.00
80566;BME280;69915;54.862;10.730;2023-10-09T05:39:36;101542.59;;;9.08;100.00
80566;BME280;69915;54.862;10.730;2023-10-09T05:42:07;101540.47;;;9.15;100.00
80566;BME280;69915;54.862;10.730;2023-10-09T05:44:43;101530.09;;;9.17;100.00
80566;BME280;69915;54.862;10.730;2023-10-09T05:47:40;101533.41;;;9.19;100.00
80566;BME280;69915;54.862;10.730;2023-10-09T05:50:25;101515.63;;;9.12;100.00
80566;BME280;69915;54.862;10.730;2023-10-09T05:52:55;101529.56;;;9.20;100.00
80566;BME280;69915;54.862;10.730;2023-10-09T05:55:24;101516.22;;;9.19;100.00
80566;BME280;69915;54.862;10.730;2023-10-09T05:57:59;101540.31;;;9.37;100.00
80566;BME280;69915;54.862;10.730;2023-10-09T06:00:43;101537.34;;;9.39;100.00
80566;BME280;69915;54.862;10.730;2023-10-09T06:03:27;101515.47;;;9.34;100.00
80566;BME280;69915;54.862;10.730;2023-10-09T06:06:13;101538.47;;;9.53;100.00
80566;BME280;69915;54.862;10.730;2023-10-09T06:08:57;101535.47;;;9.49;100.00
80566;BME280;69915;54.862;10.730;2023-10-09T06:11:46;101543.69;;;9.59;100.00
80566;BME280;69915;54.862;10.730;2023-10-09T06:14:22;101543.13;;;9.57;100.00
80566;BME280;69915;54.862;10.730;2023-10-09T06:17:11;101528.38;;;9.53;100.00
80566;BME280;69915;54.862;10.730;2023-10-09T06:19:37;101535.81;;;9.63;100.00
80566;BME280;69915;54.862;10.730;2023-10-09T06:22:09;101546.19;;;9.71;100.00
80566;BME280;69915;54.862;10.730;2023-10-09T06:24:55;101529.22;;;9.64;100.00
80566;BME280;69915;54.862;10.730;2023-10-09T06:27:23;101548.94;;;9.76;100.00
80566;BME280;69915;54.862;10.730;2023-10-09T06:30:11;101524.06;;;9.67;100.00
80566;BME280;69915;54.862;10.730;2023-10-09T06:32:49;101539.66;;;9.82;100.00
80566;BME280;69915;54.862;10.730;2023-10-09T06:35:39;101532.56;;;9.76;100.00
80566;BME280;69915;54.862;10.730;2023-10-09T06:38:05;101537.75;;;9.82;100.00
80566;BME280;69915;54.862;10.730;2023-10-09T06:40:48;101544.34;;;9.87;100.00
80566;BME280;69915;54.862;10.730;2023-10-09T06:43:18;101538.88;;;9.87;100.00
80566;BME280;69915;54.862;10.730;2023-10-09T06:45:54;101545.47;;;9.91;100.00
80566;BME280;69915;54.862;10.730;2023-10-09T06:48:23;101543.56;;;9.96;100.00
80566;BME280;69915;54.862;10.730;2023-10-09T06:51:07;101556.13;;;10.02;100.00
80566;BME280;69915;54.862;10.730;2023-10-09T06:53:53;101534.25;;;9.97;100.00
80566;BME280;69915;54.862;10.730;2023-10-09T06:59:02;101555.59;;;10.10;100.00
80566;BME280;69915;54.862;10.730;2023-10-09T07:01:41;101519.81;;;10.02;100.00
80566;BME280;69915;54.862;10.730;2023-10-09T07:04:12;101548.25;;;10.16;100.00
80566;BME280;69915;54.862;10.730;2023-10-09T07:06:48;101528.28;;;10.05;100.00
80566;BME280;69915;54.862;10.730;2023-10-09T07:09:17;101530.47;;;10.08;100.00
80566;BME280;69915;54.862;10.730;2023-10-09T07:11:53;101554.84;;;10.25;100.00
80566;BME280;69915;54.862;10.730;2023-10-09T07:14:22;101546.38;;;10.26;100.00
80566;BME280;69915;54.862;10.730;2023-10-09T07:16:58;101542.81;;;10.31;100.00
80566;BME280;69915;54.862;10.730;2023-10-09T07:19:30;101549.69;;;10.33;100.00
80566;BME280;69915;54.862;10.730;2023-10-09T07:22:05;101561.16;;;10.51;100.00
80566;BME280;69915;54.862;10.730;2023-10-09T07:24:41;101544.50;;;10.42;100.00
80566;BME280;69915;54.862;10.730;2023-10-09T07:27:16;101537.38;;;10.46;100.00
80566;BME280;69915;54.862;10.730;2023-10-09T07:29:43;101540.38;;;10.45;100.00
80566;BME280;69915;54.862;10.730;2023-10-09T07:32:18;101553.22;;;10.44;100.00
80566;BME280;69915;54.862;10.730;2023-10-09T07:34:47;101560.06;;;10.47;100.00
80566;BME280;69915;54.862;10.730;2023-10-09T07:37:26;101560.59;;;10.44;100.00
80566;BME280;69915;54.862;10.730;2023-10-09T07:39:59;101549.94;;;10.37;100.00
80566;BME280;69915;54.862;10.730;2023-10-09T07:42:27;101545.00;;;10.34;100.00
80566;BME280;69915;54.862;10.730;2023-10-09T07:45:10;101547.50;;;10.35;100.00
80566;BME280;69915;54.862;10.730;2023-10-09T07:47:48;101539.81;;;10.37;100.00
80566;BME280;69915;54.862;10.730;2023-10-09T07:50:26;101525.34;;;10.32;100.00
80566;BME280;69915;54.862;10.730;2023-10-09T07:53:05;101536.00;;;10.44;100.00
80566;BME280;69915;54.862;10.730;2023-10-09T07:55:49;101528.91;;;10.48;100.00
80566;BME280;69915;54.862;10.730;2023-10-09T07:58:28;101522.91;;;10.51;100.00
80566;BME280;69915;54.862;10.730;2023-10-09T08:00:57;101540.66;;;10.68;100.00
80566;BME280;69915;54.862;10.730;2023-10-09T08:03:24;101536.56;;;10.66;100.00
80566;BME280;69915;54.862;10.730;2023-10-09T08:05:50;101520.97;;;10.66;100.00
80566;BME280;69915;54.862;10.730;2023-10-09T08:08:18;101540.66;;;10.83;100.00
80566;BME280;69915;54.862;10.730;2023-10-09T08:10:59;101545.03;;;10.84;100.00
80566;BME280;69915;54.862;10.730;2023-10-09T08:13:44;101526.41;;;10.76;99.79
80566;BME280;69915;54.862;10.730;2023-10-09T08:16:22;101549.66;;;10.99;99.92
80566;BME280;69915;54.862;10.730;2023-10-09T08:18:49;101542.84;;;10.97;99.27
80566;BME280;69915;54.862;10.730;2023-10-09T08:21:18;101537.63;;;11.05;99.05
80566;BME280;69915;54.862;10.730;2023-10-09T08:23:43;101548.25;;;11.17;98.26
80566;BME280;69915;54.862;10.730;2023-10-09T08:26:14;101540.03;;;11.17;97.66
80566;BME280;69915;54.862;10.730;2023-10-09T08:28:41;101548.50;;;11.25;97.53
80566;BME280;69915;54.862;10.730;2023-10-09T08:31:16;101544.66;;;11.31;96.73
80566;BME280;69915;54.862;10.730;2023-10-09T08:34:00;101535.06;;;11.39;96.69
80566;BME280;69915;54.862;10.730;2023-10-09T08:36:27;101515.91;;;11.39;96.52
80566;BME280;69915;54.862;10.730;2023-10-09T08:39:02;101520.75;;;11.57;95.91
80566;BME280;69915;54.862;10.730;2023-10-09T08:41:42;101523.16;;;11.79;95.36
80566;BME280;69915;54.862;10.730;2023-10-09T08:44:11;101530.47;;;11.98;94.75
80566;BME280;69915;54.862;10.730;2023-10-09T08:46:37;101521.72;;;11.91;94.87
80566;BME280;69915;54.862;10.730;2023-10-09T08:49:05;101513.75;;;11.95;93.97
80566;BME280;69915;54.862;10.730;2023-10-09T08:51:33;101520.75;;;12.11;92.87
80566;BME280;69915;54.862;10.730;2023-10-09T08:54:00;101526.25;;;12.11;92.02
80566;BME280;69915;54.862;10.730;2023-10-09T08:56:26;101518.50;;;12.23;91.31
80566;BME280;69915;54.862;10.730;2023-10-09T08:59:00;101529.91;;;12.40;91.33
80566;BME280;69915;54.862;10.730;2023-10-09T09:01:27;101517.28;;;12.39;90.05
80566;BME280;69915;54.862;10.730;2023-10-09T09:03:57;101504.66;;;12.43;89.73
80566;BME280;69915;54.862;10.730;2023-10-09T09:06:25;101501.13;;;12.72;90.38
80566;BME280;69915;54.862;10.730;2023-10-09T09:08:51;101492.34;;;12.70;88.80
80566;BME280;69915;54.862;10.730;2023-10-09T09:11:25;101499.53;;;12.66;88.38
80566;BME280;69915;54.862;10.730;2023-10-09T09:16:25;101492.19;;;12.56;87.45
80566;BME280;69915;54.862;10.730;2023-10-09T09:19:01;101487.47;;;12.62;87.66
80566;BME280;69915;54.862;10.730;2023-10-09T09:21:39;101461.00;;;12.47;87.34
80566;BME280;69915;54.862;10.730;2023-10-09T09:24:11;101475.75;;;12.56;88.26
80566;BME280;69915;54.862;10.730;2023-10-09T09:26:57;101481.41;;;12.65;88.00
80566;BME280;69915;54.862;10.730;2023-10-09T09:32:02;101469.69;;;12.59;87.16
80566;BME280;69915;54.862;10.730;2023-10-09T09:34:44;101468.59;;;12.55;87.91
80566;BME280;69915;54.862;10.730;2023-10-09T09:37:24;101483.53;;;12.73;86.54
80566;BME280;69915;54.862;10.730;2023-10-09T09:40:01;101495.31;;;12.73;85.67
80566;BME280;69915;54.862;10.730;2023-10-09T09:42:36;101509.09;;;12.68;85.69
80566;BME280;69915;54.862;10.730;2023-10-09T09:45:04;101521.47;;;12.66;86.67
80566;BME280;69915;54.862;10.730;2023-10-09T09:47:31;101514.53;;;12.39;87.09
80566;BME280;69915;54.862;10.730;2023-10-09T09:50:01;101525.25;;;12.36;88.47
80566;BME280;69915;54.862;10.730;2023-10-09T09:52:38;101497.31;;;12.34;88.44
80566;BME280;69915;54.862;10.730;2023-10-09T09:55:07;101507.97;;;12.35;87.93
80566;BME280;69915;54.862;10.730;2023-10-09T09:57:40;101489.47;;;12.22;87.61
80566;BME280;69915;54.862;10.730;2023-10-09T10:00:09;101484.44;;;12.29;87.43
80566;BME280;69915;54.862;10.730;2023-10-09T10:02:52;101495.28;;;12.49;87.60
80566;BME280;69915;54.862;10.730;2023-10-09T10:05:21;101499.03;;;12.59;85.78
80566;BME280;69915;54.862;10.730;2023-10-09T10:07:47;101484.16;;;12.65;86.05
80566;BME280;69915;54.862;10.730;2023-10-09T10:10:34;101508.03;;;12.93;85.24
80566;BME280;69915;54.862;10.730;2023-10-09T10:13:03;101495.53;;;13.11;84.60
80566;BME280;69915;54.862;10.730;2023-10-09T10:16:00;101510.66;;;13.55;85.12
80566;BME280;69915;54.862;10.730;2023-10-09T10:18:51;101510.00;;;13.63;84.07
80566;BME280;69915;54.862;10.730;2023-10-09T10:21:19;101506.28;;;13.73;83.97
80566;BME280;69915;54.862;10.730;2023-10-09T10:24:01;101484.38;;;13.68;83.53
80566;BME280;69915;54.862;10.730;2023-10-09T10:26:36;101492.06;;;13.47;82.74
80566;BME280;69915;54.862;10.730;2023-10-09T10:29:20;101488.97;;;13.54;82.72
80566;BME280;69915;54.862;10.730;2023-10-09T10:32:02;101475.13;;;13.40;82.96
80566;BME280;69915;54.862;10.730;2023-10-09T10:34:52;101487.28;;;13.34;83.92
80566;BME280;69915;54.862;10.730;2023-10-09T10:40:05;101491.56;;;13.45;83.51
80566;BME280;69915;54.862;10.730;2023-10-09T10:42:49;101492.63;;;13.26;83.68
80566;BME280;69915;54.862;10.730;2023-10-09T10:45:35;101494.19;;;13.32;83.18
80566;BME280;69915;54.862;10.730;2023-10-09T10:48:02;101508.84;;;13.46;84.52
80566;BME280;69915;54.862;10.730;2023-10-09T10:50:33;101494.53;;;13.25;84.66
80566;BME280;69915;54.862;10.730;2023-10-09T10:53:11;101510.09;;;13.06;84.79
80566;BME280;69915;54.862;10.730;2023-10-09T10:55:54;101515.47;;;12.92;84.60
80566;BME280;69915;54.862;10.730;2023-10-09T10:58:21;101530.53;;;12.95;85.05
80566;BME280;69915;54.862;10.730;2023-10-09T11:00:56;101510.88;;;12.83;85.72
80566;BME280;69915;54.862;10.730;2023-10-09T11:03:22;101531.75;;;13.13;86.41
80566;BME280;69915;54.862;10.730;2023-10-09T11:06:06;101519.00;;;13.22;85.98
80566;BME280;69915;54.862;10.730;2023-10-09T11:08:49;101502.69;;;13.30;85.90
80566;BME280;69915;54.862;10.730;2023-10-09T11:11:22;101508.25;;;13.25;84.79
80566;BME280;69915;54.862;10.730;2023-10-09T11:13:48;101506.00;;;13.08;85.79
80566;BME280;69915;54.862;10.730;2023-10-09T11:16:24;101524.31;;;13.13;85.29
80566;BME280;69915;54.862;10.730;2023-10-09T11:19:14;101525.44;;;13.12;86.79
80566;BME280;69915;54.862;10.730;2023-10-09T11:22:05;101513.66;;;13.12;85.27
80566;BME280;69915;54.862;10.730;2023-10-09T11:24:31;101508.25;;;13.25;84.95
80566;BME280;69915;54.862;10.730;2023-10-09T11:27:04;101500.03;;;13.25;84.78
80566;BME280;69915;54.862;10.730;2023-10-09T11:29:33;101498.94;;;13.26;85.64
80566;BME280;69915;54.862;10.730;2023-10-09T11:32:09;101494.94;;;13.37;85.63
80566;BME280;69915;54.862;10.730;2023-10-09T11:35:08;101504.16;;;13.46;85.58
80566;BME280;69915;54.862;10.730;2023-10-09T11:37:35;101488.00;;;13.45;85.66
80566;BME280;69915;54.862;10.730;2023-10-09T11:40:05;101512.31;;;13.75;86.13
80566;BME280;69915;54.862;10.730;2023-10-09T11:42:49;101500.88;;;13.68;85.31
80566;BME280;69915;54.862;10.730;2023-10-09T11:45:23;101500.13;;;13.62;85.04
80566;BME280;69915;54.862;10.730;2023-10-09T11:47:51;101481.56;;;13.73;85.35
80566;BME280;69915;54.862;10.730;2023-10-09T11:50:45;101498.00;;;13.97;86.40
80566;BME280;69915;54.862;10.730;2023-10-09T11:53:41;101466.44;;;13.76;85.54
80566;BME280;69915;54.862;10.730;2023-10-09T11:56:21;101485.59;;;13.81;85.36
80566;BME280;69915;54.862;10.730;2023-10-09T11:58:48;101478.88;;;13.68;85.33
80566;BME280;69915;54.862;10.730;2023-10-09T12:01:15;101469.78;;;13.73;85.55
80566;BME280;69915;54.862;10.730;2023-10-09T12:03:49;101483.78;;;13.71;85.61
80566;BME280;69915;54.862;10.730;2023-10-09T12:06:20;101469.59;;;13.83;85.08
80566;BME280;69915;54.862;10.730;2023-10-09T12:08:48;101466.19;;;13.53;84.63
80566;BME280;69915;54.862;10.730;2023-10-09T12:11:15;101469.59;;;13.64;85.61
80566;BME280;69915;54.862;10.730;2023-10-09T12:13:48;101451.03;;;13.56;85.65
80566;BME280;69915;54.862;10.730;2023-10-09T12:16:13;101448.75;;;13.39;86.51
80566;BME280;69915;54.862;10.730;2023-10-09T12:18:41;101464.19;;;13.59;85.94
80566;BME280;69915;54.862;10.730;2023-10-09T12:21:08;101479.53;;;13.41;86.22
80566;BME280;69915;54.862;10.730;2023-10-09T12:23:40;101472.38;;;13.40;87.00
80566;BME280;69915;54.862;10.730;2023-10-09T12:26:08;101476.59;;;13.33;87.29
80566;BME280;69915;54.862;10.730;2023-10-09T12:28:41;101485.19;;;12.97;87.32
80566;BME280;69915;54.862;10.730;2023-10-09T12:31:14;101503.59;;;12.97;88.21
80566;BME280;69915;54.862;10.730;2023-10-09T12:33:40;101514.91;;;12.90;88.21
80566;BME280;69915;54.862;10.730;2023-10-09T12:36:06;101500.09;;;12.91;88.59
80566;BME280;69915;54.862;10.730;2023-10-09T12:38:31;101509.38;;;12.95;90.00
80566;BME280;69915;54.862;10.730;2023-10-09T12:41:06;101509.13;;;12.92;89.39
80566;BME280;69915;54.862;10.730;2023-10-09T12:43:56;101496.00;;;12.89;89.18
80566;BME280;69915;54.862;10.730;2023-10-09T12:46:25;101504.59;;;13.11;88.56
80566;BME280;69915;54.862;10.730;2023-10-09T12:48:54;101522.19;;;13.05;88.22
80566;BME280;69915;54.862;10.730;2023-10-09T12:51:21;101507.50;;;12.91;89.07
80566;BME280;69915;54.862;10.730;2023-10-09T12:53:51;101522.28;;;12.95;88.60
80566;BME280;69915;54.862;10.730;2023-10-09T12:56:23;101507.69;;;12.71;89.18
80566;BME280;69915;54.862;10.730;2023-10-09T12:59:00;101509.09;;;12.68;89.29
80566;BME280;69915;54.862;10.730;2023-10-09T13:01:27;101513.91;;;12.81;89.24
80566;BME280;69915;54.862;10.730;2023-10-09T13:04:00;101520.50;;;13.09;89.98
80566;BME280;69915;54.862;10.730;2023-10-09T13:06:26;101497.34;;;13.20;88.92
80566;BME280;69915;54.862;10.730;2023-10-09T13:08:53;101477.06;;;13.16;89.14
80566;BME280;69915;54.862;10.730;2023-10-09T13:11:21;101492.72;;;13.39;88.47
80566;BME280;69915;54.862;10.730;2023-10-09T13:13:47;101480.44;;;13.55;88.94
80566;BME280;69915;54.862;10.730;2023-10-09T13:16:21;101482.81;;;13.62;88.15
80566;BME280;69915;54.862;10.730;2023-10-09T13:18:51;101479.72;;;13.69;87.63
80566;BME280;69915;54.862;10.730;2023-10-09T13:23:43;101480.31;;;14.03;86.54
80566;BME280;69915;54.862;10.730;2023-10-09T13:26:18;101477.75;;;14.25;86.71
80566;BME280;69915;54.862;10.730;2023-10-09T13:28:48;101487.88;;;14.11;86.60
80566;BME280;69915;54.862;10.730;2023-10-09T13:31:14;101483.56;;;14.24;85.62
80566;BME280;69915;54.862;10.730;2023-10-09T13:33:44;101466.34;;;13.99;86.47